createdAt,value
2022-12-11T00:00:59.137Z,3.42
2022-12-11T00:04:01.601Z,2.95
2022-12-11T00:07:04.234Z,1.90
2022-12-11T00:10:07.542Z,2.40
2022-12-11T00:13:09.963Z,2.33
2022-12-11T00:16:12.581Z,2.60
2022-12-11T00:19:15.825Z,2.17
2022-12-11T00:22:18.271Z,2.72
2022-12-11T00:25:20.742Z,3.03
2022-12-11T00:28:23.614Z,2.25
2022-12-11T00:31:26.298Z,3.00
2022-12-11T00:34:28.763Z,2.38
2022-12-11T00:37:31.160Z,2.05
2022-12-11T00:40:36.370Z,2.27
2022-12-11T00:43:40.249Z,2.13
2022-12-11T00:46:42.663Z,3.35
2022-12-11T00:49:49.593Z,2.23
2022-12-11T00:52:52.438Z,2.80
2022-12-11T00:55:55.032Z,1.95
2022-12-11T00:58:57.513Z,3.03
2022-12-11T01:02:01.084Z,2.13
2022-12-11T01:05:04.132Z,2.83
2022-12-11T01:08:07.282Z,2.70
2022-12-11T01:11:12.519Z,2.30
2022-12-11T01:14:14.922Z,2.40
2022-12-11T01:17:17.764Z,2.47
2022-12-11T01:20:22.384Z,2.40
2022-12-11T01:23:24.812Z,2.22
2022-12-11T01:26:27.336Z,2.13
2022-12-11T01:29:29.817Z,2.80
2022-12-11T01:32:32.753Z,2.40
2022-12-11T01:35:35.150Z,1.75
2022-12-11T01:38:37.761Z,1.90
2022-12-11T01:41:40.253Z,1.50
2022-12-11T01:44:42.647Z,1.60
2022-12-11T01:47:45.100Z,2.63
2022-12-11T01:50:56.191Z,2.57
2022-12-11T01:54:09.809Z,1.88
2022-12-11T01:57:14.012Z,2.00
2022-12-11T02:00:17.084Z,2.13
2022-12-11T02:03:20.100Z,1.80
2022-12-11T02:06:37.886Z,2.10
2022-12-11T02:09:43.242Z,1.50
2022-12-11T02:13:05.102Z,1.80
2022-12-11T02:16:22.620Z,1.65
2022-12-11T02:19:52.294Z,1.20
2022-12-11T02:23:13.145Z,1.87
2022-12-11T02:26:24.181Z,1.45
2022-12-11T02:29:32.796Z,2.15
2022-12-11T02:32:42.026Z,2.15
2022-12-11T02:35:46.169Z,2.35
2022-12-11T02:38:52.497Z,1.92
2022-12-11T02:41:56.520Z,1.77
2022-12-11T02:45:01.607Z,1.63
2022-12-11T02:48:06.475Z,1.98
2022-12-11T02:51:10.970Z,2.63
2022-12-11T02:54:22.496Z,1.63
2022-12-11T02:57:53.160Z,1.30
2022-12-11T03:00:55.809Z,2.17
2022-12-11T03:03:58.560Z,1.10
2022-12-11T03:07:12.042Z,2.22
2022-12-11T03:10:18.727Z,1.95
2022-12-11T03:13:23.281Z,2.00
2022-12-11T03:16:35.782Z,1.87
2022-12-11T03:19:45.838Z,1.63
2022-12-11T03:23:09.475Z,2.08
2022-12-11T03:26:15.113Z,2.00
2022-12-11T03:29:24.797Z,2.38
2022-12-11T03:32:36.185Z,1.65
2022-12-11T03:35:44.004Z,2.00
2022-12-11T03:38:50.987Z,2.33
2022-12-11T03:41:55.821Z,2.30
2022-12-11T03:45:00.295Z,2.20
2022-12-11T03:48:03.308Z,1.33
2022-12-11T03:51:06.692Z,1.40
2022-12-11T03:54:10.282Z,1.25
2022-12-11T03:57:16.666Z,2.10
2022-12-11T04:00:21.031Z,1.25
2022-12-11T04:03:23.969Z,1.45
2022-12-11T04:06:26.467Z,1.83
2022-12-11T04:09:29.126Z,2.08
2022-12-11T04:12:31.522Z,2.28
2022-12-11T04:15:34.518Z,2.20
2022-12-11T04:18:55.918Z,2.10
2022-12-11T04:22:16.635Z,1.90
2022-12-11T04:25:19.207Z,2.00
2022-12-11T04:28:21.652Z,2.00
2022-12-11T04:31:24.397Z,2.58
2022-12-11T04:34:26.869Z,2.13
2022-12-11T04:37:29.371Z,1.77
2022-12-11T04:40:31.768Z,2.20
2022-12-11T04:43:34.575Z,2.40
2022-12-11T04:46:36.999Z,2.60
2022-12-11T04:49:39.448Z,2.10
2022-12-11T04:52:42.862Z,2.17
2022-12-11T04:55:45.247Z,2.38
2022-12-11T04:58:48.353Z,2.80
2022-12-11T05:01:50.973Z,1.58
2022-12-11T05:04:53.452Z,2.40
2022-12-11T05:07:55.932Z,2.00
2022-12-11T05:11:04.547Z,2.28
2022-12-11T05:14:06.952Z,2.00
2022-12-11T05:17:09.405Z,1.70
2022-12-11T05:20:11.969Z,2.63
2022-12-11T05:23:14.446Z,1.77
2022-12-11T05:26:20.081Z,2.13
2022-12-11T05:29:22.511Z,1.80
2022-12-11T05:32:25.089Z,2.07
2022-12-11T05:35:27.536Z,1.77
2022-12-11T05:38:30.902Z,2.40
2022-12-11T05:41:33.358Z,1.92
2022-12-11T05:44:35.967Z,1.85
2022-12-11T05:47:38.354Z,1.70
2022-12-11T05:50:41.067Z,2.38
2022-12-11T05:53:44.915Z,1.70
2022-12-11T05:56:51.148Z,2.28
2022-12-11T05:59:53.572Z,2.28
2022-12-11T06:02:56.036Z,2.13
2022-12-11T06:06:02.887Z,2.20
2022-12-11T06:09:06.553Z,2.25
2022-12-11T06:12:09.006Z,2.10
2022-12-11T06:15:11.556Z,2.60
2022-12-11T06:18:14.150Z,2.60
2022-12-11T06:21:23.118Z,2.70
2022-12-11T06:24:25.507Z,2.70
2022-12-11T06:27:28.154Z,2.35
2022-12-11T06:30:37.587Z,2.72
2022-12-11T06:33:42.155Z,3.00
2022-12-11T06:36:44.603Z,2.42
2022-12-11T06:39:47.542Z,4.00
2022-12-11T06:42:49.960Z,5.43
2022-12-11T06:45:53.099Z,3.75
2022-12-11T06:48:55.624Z,5.03
2022-12-11T06:51:58.658Z,3.67
2022-12-11T06:55:01.157Z,3.73
2022-12-11T06:58:03.920Z,4.30
2022-12-11T07:01:15.654Z,4.97
2022-12-11T07:04:18.131Z,7.27
2022-12-11T07:07:20.655Z,4.72
2022-12-11T07:10:23.167Z,5.25
2022-12-11T07:13:25.552Z,9.43
2022-12-11T07:16:28.142Z,15.77
2022-12-11T07:19:30.878Z,10.02
2022-12-11T07:22:33.223Z,8.40
2022-12-11T07:25:37.245Z,3.73
2022-12-11T07:28:40.427Z,8.00
2022-12-11T07:31:43.140Z,7.10
2022-12-11T07:34:51.414Z,17.67
2022-12-11T07:37:54.257Z,11.20
2022-12-11T07:41:00.226Z,11.60
2022-12-11T07:44:03.460Z,8.30
2022-12-11T07:47:05.819Z,13.88
2022-12-11T07:50:09.011Z,16.08
2022-12-11T07:53:11.432Z,16.95
2022-12-11T07:56:14.732Z,13.93
2022-12-11T07:59:17.231Z,11.45
2022-12-11T08:02:19.694Z,8.43
2022-12-11T08:05:22.711Z,3.83
2022-12-11T08:08:25.176Z,4.53
2022-12-11T08:11:28.462Z,12.98
2022-12-11T08:14:31.018Z,10.85
2022-12-11T08:17:39.684Z,9.25
2022-12-11T08:20:43.284Z,6.93
2022-12-11T08:23:47.754Z,8.50
2022-12-11T08:26:50.134Z,10.30
2022-12-11T08:29:52.548Z,7.85
2022-12-11T08:32:54.971Z,7.80
2022-12-11T08:35:57.470Z,6.33
2022-12-11T08:39:00.420Z,7.57
2022-12-11T08:42:03.117Z,6.65
2022-12-11T08:45:06.214Z,5.85
2022-12-11T08:48:08.763Z,6.43
2022-12-11T08:51:14.207Z,4.63
2022-12-11T08:54:16.718Z,9.40
2022-12-11T08:57:19.091Z,6.93
2022-12-11T09:00:21.907Z,5.95
2022-12-11T09:03:25.241Z,5.28
2022-12-11T09:06:30.639Z,4.53
2022-12-11T09:09:33.143Z,5.28
2022-12-11T09:12:36.614Z,5.30
2022-12-11T09:15:42.013Z,4.28
2022-12-11T09:18:49.814Z,4.63
2022-12-11T09:21:52.236Z,3.70
2022-12-11T09:24:54.676Z,4.13
2022-12-11T09:27:57.066Z,4.73
2022-12-11T09:30:59.823Z,3.00
2022-12-11T09:34:05.254Z,2.97
2022-12-11T09:37:07.698Z,4.77
2022-12-11T09:40:12.446Z,5.05
2022-12-11T09:43:33.458Z,6.72
2022-12-11T09:46:37.942Z,12.18
2022-12-11T09:49:44.728Z,12.75
2022-12-11T09:52:55.970Z,6.78
2022-12-11T09:56:15.369Z,16.77
2022-12-11T09:59:20.620Z,7.43
2022-12-11T10:02:30.810Z,6.22
2022-12-11T10:06:10.624Z,4.72
2022-12-11T10:09:24.368Z,3.90
2022-12-11T10:12:48.751Z,4.55
2022-12-11T10:16:04.431Z,5.32
2022-12-11T10:19:33.821Z,6.82
2022-12-11T10:22:36.730Z,3.05
2022-12-11T10:25:48.720Z,6.90
2022-12-11T10:28:51.166Z,5.20
2022-12-11T10:31:58.572Z,5.33
2022-12-11T10:35:05.406Z,3.45
2022-12-11T10:38:20.028Z,4.88
2022-12-11T10:41:38.056Z,4.90
2022-12-11T10:44:40.619Z,6.20
2022-12-11T10:47:43.009Z,5.60
2022-12-11T10:50:57.498Z,5.25
2022-12-11T10:54:29.856Z,7.18
2022-12-11T10:57:39.164Z,6.35
2022-12-11T11:00:42.163Z,5.38
2022-12-11T11:03:57.027Z,5.77
2022-12-11T11:07:14.155Z,3.28
2022-12-11T11:10:17.981Z,3.40
2022-12-11T11:13:25.252Z,4.37
2022-12-11T11:16:27.868Z,4.85
2022-12-11T11:19:36.070Z,4.70
2022-12-11T11:22:46.918Z,4.47
2022-12-11T11:25:54.365Z,5.30
2022-12-11T11:28:57.671Z,5.35
2022-12-11T11:32:26.335Z,6.38
2022-12-11T11:35:31.600Z,5.43
2022-12-11T11:38:36.474Z,4.00
2022-12-11T11:41:52.239Z,8.65
2022-12-11T11:45:09.938Z,11.80
2022-12-11T11:48:28.133Z,8.65
2022-12-11T11:51:41.668Z,6.65
2022-12-11T11:54:53.060Z,4.97
2022-12-11T11:58:02.684Z,5.30
2022-12-11T12:01:05.272Z,8.55
2022-12-11T12:04:07.960Z,9.85
2022-12-11T12:07:41.064Z,3.07
2022-12-11T12:11:02.236Z,9.50
2022-12-11T12:14:50.589Z,12.52
2022-12-11T12:17:56.500Z,22.67
2022-12-11T12:20:58.920Z,5.43
2022-12-11T12:24:25.981Z,11.43
2022-12-11T12:27:55.781Z,11.35
2022-12-11T12:31:14.271Z,12.60
2022-12-11T12:34:29.164Z,11.82
2022-12-11T12:37:37.915Z,14.70
2022-12-11T12:40:48.957Z,12.53
2022-12-11T12:44:10.158Z,8.52
2022-12-11T12:47:17.255Z,14.55
2022-12-11T12:50:25.442Z,8.77
2022-12-11T12:53:33.538Z,11.60
2022-12-11T12:56:37.660Z,16.95
2022-12-11T12:59:40.198Z,18.60
2022-12-11T13:02:50.680Z,12.60
2022-12-11T13:05:56.352Z,11.75
2022-12-11T13:09:18.645Z,29.00
2022-12-11T13:12:32.612Z,16.50
2022-12-11T13:15:40.502Z,16.10
2022-12-11T13:18:45.661Z,21.02
2022-12-11T13:22:03.322Z,15.88
2022-12-11T13:25:29.325Z,13.30
2022-12-11T13:28:51.183Z,11.15
2022-12-11T13:32:19.931Z,29.45
2022-12-11T13:35:22.501Z,11.83
2022-12-11T13:38:25.664Z,13.13
2022-12-11T13:41:29.521Z,12.85
2022-12-11T13:44:39.504Z,9.90
2022-12-11T13:47:42.200Z,14.38
2022-12-11T13:50:46.422Z,33.05
2022-12-11T13:53:49.113Z,23.15
2022-12-11T13:57:08.406Z,19.60
2022-12-11T14:00:22.523Z,24.27
2022-12-11T14:03:25.392Z,15.60
2022-12-11T14:06:29.657Z,17.87
2022-12-11T14:09:32.084Z,23.58
2022-12-11T14:12:35.780Z,25.88
2022-12-11T14:15:43.910Z,24.08
2022-12-11T14:18:49.819Z,17.85
2022-12-11T14:22:04.158Z,22.42
2022-12-11T14:25:27.108Z,34.72
2022-12-11T14:28:38.474Z,57.97
2022-12-11T14:31:44.003Z,25.45
2022-12-11T14:34:49.604Z,26.08
2022-12-11T14:37:53.662Z,30.93
2022-12-11T14:41:21.511Z,42.65
2022-12-11T14:44:28.289Z,65.18
2022-12-11T14:47:34.915Z,68.45
2022-12-11T14:50:48.696Z,73.18
2022-12-11T14:53:53.037Z,49.75
2022-12-11T14:56:56.164Z,39.55
2022-12-11T14:59:59.159Z,33.57
2022-12-11T15:03:21.382Z,34.00
2022-12-11T15:06:33.593Z,23.05
2022-12-11T15:09:36.331Z,19.77
2022-12-11T15:12:45.228Z,26.65
2022-12-11T15:15:48.025Z,38.55
2022-12-11T15:18:52.667Z,52.97
2022-12-11T15:22:01.165Z,31.67
2022-12-11T15:25:04.450Z,28.42
2022-12-11T15:28:26.759Z,49.70
2022-12-11T15:31:33.628Z,29.50
2022-12-11T15:35:03.099Z,26.65
2022-12-11T15:38:05.971Z,26.23
2022-12-11T15:41:15.771Z,24.53
2022-12-11T15:44:21.602Z,24.13
2022-12-11T15:47:26.623Z,18.50
2022-12-11T15:50:30.312Z,14.85
2022-12-11T15:53:33.943Z,13.98
2022-12-11T15:56:36.297Z,20.67
2022-12-11T15:59:39.153Z,23.10
2022-12-11T16:02:41.735Z,22.07
2022-12-11T16:05:45.234Z,15.77
2022-12-11T16:08:47.648Z,9.32
2022-12-11T16:11:51.487Z,10.70
2022-12-11T16:14:53.978Z,15.52
2022-12-11T16:18:01.554Z,19.42
2022-12-11T16:21:06.364Z,15.70
2022-12-11T16:24:08.896Z,16.90
2022-12-11T16:27:11.536Z,25.27
2022-12-11T16:30:14.421Z,18.50
2022-12-11T16:33:17.525Z,17.67
2022-12-11T16:36:20.602Z,18.45
2022-12-11T16:39:23.015Z,17.13
2022-12-11T16:42:25.451Z,15.53
2022-12-11T16:45:28.108Z,14.43
2022-12-11T16:48:30.707Z,13.07
2022-12-11T16:51:33.598Z,11.40
2022-12-11T16:54:36.106Z,11.48
2022-12-11T16:57:39.180Z,11.88
2022-12-11T17:00:43.738Z,12.15
2022-12-11T17:03:46.696Z,13.50
2022-12-11T17:06:50.102Z,14.02
2022-12-11T17:09:52.538Z,13.55
2022-12-11T17:12:55.202Z,18.43
2022-12-11T17:15:57.634Z,38.83
2022-12-11T17:19:00.650Z,21.08
2022-12-11T17:22:03.579Z,22.08
2022-12-11T17:25:06.399Z,16.85
2022-12-11T17:28:09.500Z,13.70
2022-12-11T17:31:16.757Z,13.60
2022-12-11T17:34:19.504Z,10.67
2022-12-11T17:37:22.660Z,8.88
2022-12-11T17:40:28.301Z,8.98
2022-12-11T17:43:30.805Z,17.30
2022-12-11T17:46:33.364Z,22.02
2022-12-11T17:49:35.893Z,24.33
2022-12-11T17:52:43.961Z,25.33
2022-12-11T17:55:48.535Z,25.58
2022-12-11T17:58:51.383Z,24.40
2022-12-11T18:01:53.915Z,24.38
2022-12-11T18:04:56.377Z,23.80
2022-12-11T18:07:59.564Z,37.13
2022-12-11T18:11:07.315Z,38.90
2022-12-11T18:14:15.247Z,41.37
2022-12-11T18:17:19.525Z,40.53
2022-12-11T18:20:22.040Z,40.85
2022-12-11T18:23:24.805Z,39.47
2022-12-11T18:26:28.178Z,45.00
2022-12-11T18:29:31.011Z,47.03
2022-12-11T18:32:33.512Z,45.05
2022-12-11T18:35:36.196Z,47.63
2022-12-11T18:38:39.987Z,40.35
2022-12-11T18:41:42.556Z,42.75
2022-12-11T18:44:46.470Z,43.03
2022-12-11T18:47:51.422Z,38.58
2022-12-11T18:50:53.884Z,44.67
2022-12-11T18:53:56.509Z,43.40
2022-12-11T18:56:59.336Z,44.07
2022-12-11T19:00:07.355Z,42.70
2022-12-11T19:03:11.993Z,41.63
2022-12-11T19:06:20.637Z,42.27
2022-12-11T19:09:23.517Z,43.85
2022-12-11T19:12:26.234Z,45.25
2022-12-11T19:15:28.907Z,44.78
2022-12-11T19:18:31.805Z,45.63
2022-12-11T19:21:36.693Z,47.45
2022-12-11T19:24:39.920Z,30.50
2022-12-11T19:27:42.549Z,24.27
2022-12-11T19:30:49.827Z,29.88
2022-12-11T19:33:52.389Z,29.10
2022-12-11T19:36:57.036Z,30.50
2022-12-11T19:39:59.583Z,30.70
2022-12-11T19:43:02.253Z,33.05
2022-12-11T19:46:07.989Z,43.80
2022-12-11T19:49:11.653Z,38.20
2022-12-11T19:52:14.364Z,40.42
2022-12-11T19:55:17.147Z,39.83
2022-12-11T19:58:20.187Z,43.17
2022-12-11T20:01:34.473Z,48.80
2022-12-11T20:04:37.359Z,52.85
2022-12-11T20:07:40.168Z,54.92
2022-12-11T20:10:42.821Z,44.83
2022-12-11T20:13:46.791Z,34.25
2022-12-11T20:17:11.079Z,33.28
2022-12-11T20:20:15.356Z,34.47
2022-12-11T20:23:18.339Z,30.08
2022-12-11T20:26:24.375Z,43.33
2022-12-11T20:29:27.150Z,41.60
2022-12-11T20:32:30.116Z,36.53
2022-12-11T20:35:32.623Z,26.38
2022-12-11T20:38:36.216Z,19.73
2022-12-11T20:41:39.246Z,25.58
2022-12-11T20:44:47.261Z,25.30
2022-12-11T20:47:52.093Z,25.38
2022-12-11T20:51:00.277Z,23.57
2022-12-11T20:54:03.057Z,25.17
2022-12-11T20:57:05.464Z,23.38
2022-12-11T21:00:08.982Z,19.20
2022-12-11T21:03:12.175Z,17.23
2022-12-11T21:06:25.412Z,17.50
2022-12-11T21:09:28.034Z,17.88
2022-12-11T21:12:31.873Z,15.03
2022-12-11T21:15:38.698Z,14.60
2022-12-11T21:18:41.651Z,13.90
2022-12-11T21:21:46.356Z,13.50
2022-12-11T21:24:48.962Z,12.38
2022-12-11T21:27:51.595Z,10.43
2022-12-11T21:31:00.183Z,9.93
2022-12-11T21:34:04.037Z,10.10
2022-12-11T21:37:06.587Z,10.40
2022-12-11T21:40:10.461Z,10.18
2022-12-11T21:43:12.919Z,10.53
2022-12-11T21:46:17.735Z,11.05
2022-12-11T21:49:20.759Z,12.07
2022-12-11T21:52:23.571Z,15.07
2022-12-11T21:55:25.931Z,12.60
2022-12-11T21:58:28.351Z,12.75
2022-12-11T22:01:40.907Z,11.85
2022-12-11T22:04:43.403Z,10.97
2022-12-11T22:07:45.874Z,11.52
2022-12-11T22:10:48.693Z,10.13
2022-12-11T22:13:51.096Z,9.53
2022-12-11T22:16:53.610Z,9.68
2022-12-11T22:19:56.138Z,8.88
2022-12-11T22:22:58.625Z,9.38
2022-12-11T22:26:01.107Z,9.23
2022-12-11T22:29:03.816Z,9.60
2022-12-11T22:32:06.368Z,8.77
2022-12-11T22:35:09.355Z,9.63
2022-12-11T22:38:11.944Z,9.60
2022-12-11T22:41:22.394Z,9.70
2022-12-11T22:44:25.384Z,10.15
2022-12-11T22:47:27.779Z,9.68
2022-12-11T22:50:31.881Z,10.85
2022-12-11T22:53:34.278Z,9.60
2022-12-11T22:56:36.823Z,9.77
2022-12-11T22:59:39.889Z,9.90
2022-12-11T23:02:42.964Z,10.07
2022-12-11T23:05:45.454Z,10.98
2022-12-11T23:08:48.176Z,10.32
2022-12-11T23:11:51.627Z,11.20
2022-12-11T23:14:54.239Z,10.48
2022-12-11T23:17:56.627Z,10.93
2022-12-11T23:20:59.322Z,10.20
2022-12-11T23:24:02.493Z,10.90
2022-12-11T23:27:04.924Z,10.03
2022-12-11T23:30:08.810Z,9.48
2022-12-11T23:33:11.350Z,11.55
2022-12-11T23:36:13.848Z,11.02
2022-12-11T23:39:16.419Z,11.33
2022-12-11T23:42:18.803Z,11.57
2022-12-11T23:45:21.345Z,11.73
2022-12-11T23:48:24.061Z,11.67
2022-12-11T23:51:26.826Z,12.20
2022-12-11T23:54:29.839Z,11.43
2022-12-11T23:57:32.342Z,12.25
